PWSweather.com
Personal Weather Stations
Station Observations
HARSTAD1
Kanebogen, HarstadNO 9411

KanebogenHarstadNO 9411

Lat: 68.7731054, Lon: 16.5496315

Elevation: 213

Station Type: Netatmo Weather Station

http://oddne.net/met/

Latest ConditionsUpdated 12:32:50 PM GMT+01:01 Thursday, Nov 21, 2019
Currently Today's Max Today's Min Today's Average
Temperature 38.8°F3.8°C 40.1°F4.5°C 38.3°F3.5°C 39.4°F4.1°C
Dew Point 34.0°F1.1°C 36.7°F2.6°C 34.0°F1.1°C 35.0°F1.7°C
Winds 3.7 mph WSW6.0 kmh WSW 10.6 mph -17.1 kmh - - 5.4 mph 8.7 kmh
Wind Gusts 6.2 mph10.0 kmh 24.2 mph38.9 kmh - -
Humidity 83% 93% 80% 84%
Pressure 30.63 in1037.3 mb 30.63 in1037.3 mb 30.53 in1033.9 mb -
Precipitation - 0.01 in0.3 mm - -
Hour Temp Dew Point Humidity Winds Wind Gusts Pressure Precip Precip Rate Daily Precip Total
12:32 PM 38.8°F3.8°C 34.0°F1.1°C 83% 3.7 mph WSW6.0 kmh WSW 6.2 mph10.0 kmh 30.63 in1037.3 mb 0.00 in0.0 mm 0.00 in0.0 mm 0.01 in0.3 mm
12:18 PM 38.8°F3.8°C 34.0°F1.1°C 83% 3.7 mph WSW6.0 kmh WSW 6.2 mph10.0 kmh 30.63 in1037.3 mb 0.00 in0.0 mm 0.00 in0.0 mm 0.01 in0.3 mm
12:10 PM 39.0°F3.9°C 34.0°F1.1°C 82% 3.7 mph SW6.0 kmh SW 5.0 mph8.0 kmh 30.63 in1037.3 mb 0.00 in0.0 mm 0.00 in0.0 mm 0.01 in0.3 mm
11:59 AM 39.4°F4.1°C 34.3°F1.3°C 82% 3.1 mph S5.0 kmh S 9.3 mph15.0 kmh 30.63 in1037.3 mb 0.00 in0.0 mm 0.00 in0.0 mm 0.01 in0.3 mm
11:52 AM 39.4°F4.1°C 34.3°F1.3°C 82% 3.7 mph SW6.0 kmh SW 7.5 mph12.1 kmh 30.63 in1037.3 mb 0.00 in0.0 mm 0.00 in0.0 mm 0.01 in0.3 mm
11:42 AM 39.4°F4.1°C 34.0°F1.1°C 81% 3.1 mph SW5.0 kmh SW 9.3 mph15.0 kmh 30.63 in1037.3 mb 0.00 in0.0 mm 0.00 in0.0 mm 0.01 in0.3 mm
11:30 AM 39.6°F4.2°C 34.2°F1.2°C 81% - N N -- 30.63 in1037.3 mb 0.00 in0.0 mm 0.00 in0.0 mm 0.01 in0.3 mm
11:22 AM 39.7°F4.3°C 34.0°F1.1°C 80% 2.5 mph SSW4.0 kmh SSW 3.7 mph6.0 kmh 30.63 in1037.3 mb 0.00 in0.0 mm 0.00 in0.0 mm 0.01 in0.3 mm
11:12 AM 39.7°F4.3°C 34.0°F1.1°C 80% - N N -- 30.63 in1037.3 mb 0.00 in0.0 mm 0.00 in0.0 mm 0.01 in0.3 mm
11:02 AM 39.9°F4.4°C 34.2°F1.2°C 80% - N N -- 30.63 in1037.3 mb 0.00 in0.0 mm 0.00 in0.0 mm 0.01 in0.3 mm
10:52 AM 39.7°F4.3°C 34.3°F1.3°C 81% - N N -- 30.63 in1037.3 mb 0.00 in0.0 mm 0.00 in0.0 mm 0.01 in0.3 mm
10:39 AM 39.6°F4.2°C 34.5°F1.4°C 82% - N N -- 30.63 in1037.3 mb 0.00 in0.0 mm 0.00 in0.0 mm 0.01 in0.3 mm
10:32 AM 39.4°F4.1°C 34.3°F1.3°C 82% - N N -- 30.63 in1037.3 mb 0.00 in0.0 mm 0.00 in0.0 mm 0.01 in0.3 mm
10:18 AM 39.2°F4.0°C 34.2°F1.2°C 82% - N N -- 30.63 in1037.3 mb 0.00 in0.0 mm 0.00 in0.0 mm 0.01 in0.3 mm
10:12 AM 39.2°F4.0°C 34.2°F1.2°C 82% 2.5 mph SSW4.0 kmh SSW 3.7 mph6.0 kmh 30.62 in1036.9 mb 0.00 in0.0 mm 0.00 in0.0 mm 0.01 in0.3 mm
10:02 AM 39.4°F4.1°C 34.3°F1.3°C 82% 1.9 mph SW3.1 kmh SW 3.1 mph5.0 kmh 30.62 in1036.9 mb 0.00 in0.0 mm 0.00 in0.0 mm 0.01 in0.3 mm
09:50 AM 39.4°F4.1°C 34.3°F1.3°C 82% 3.7 mph SW6.0 kmh SW 7.5 mph12.1 kmh 30.61 in1036.6 mb 0.00 in0.0 mm 0.00 in0.0 mm 0.01 in0.3 mm
09:42 AM 39.4°F4.1°C 34.3°F1.3°C 82% 1.9 mph SW3.1 kmh SW 3.7 mph6.0 kmh 30.61 in1036.6 mb 0.00 in0.0 mm 0.00 in0.0 mm 0.01 in0.3 mm
09:28 AM 39.6°F4.2°C 34.2°F1.2°C 81% 1.9 mph SW3.1 kmh SW 4.4 mph7.1 kmh 30.61 in1036.6 mb 0.00 in0.0 mm 0.00 in0.0 mm 0.01 in0.3 mm
09:22 AM 39.6°F4.2°C 34.2°F1.2°C 81% 1.9 mph SW3.1 kmh SW 4.4 mph7.1 kmh 30.61 in1036.6 mb 0.00 in0.0 mm 0.00 in0.0 mm 0.01 in0.3 mm
09:12 AM 39.6°F4.2°C 34.2°F1.2°C 81% 1.2 mph SW1.9 kmh SW 3.7 mph6.0 kmh 30.61 in1036.6 mb 0.00 in0.0 mm 0.00 in0.0 mm 0.01 in0.3 mm
08:58 AM 39.7°F4.3°C 34.3°F1.3°C 81% 1.9 mph SW3.1 kmh SW 3.1 mph5.0 kmh 30.61 in1036.6 mb 0.00 in0.0 mm 0.00 in0.0 mm 0.01 in0.3 mm
08:48 AM 39.7°F4.3°C 34.3°F1.3°C 81% 1.9 mph SSE3.1 kmh SSE 5.6 mph9.0 kmh 30.60 in1036.2 mb 0.00 in0.0 mm 0.00 in0.0 mm 0.01 in0.3 mm
08:42 AM 39.9°F4.4°C 34.5°F1.4°C 81% 1.9 mph S3.1 kmh S 4.4 mph7.1 kmh 30.60 in1036.2 mb 0.00 in0.0 mm 0.00 in0.0 mm 0.01 in0.3 mm
08:32 AM 39.9°F4.4°C 34.5°F1.4°C 81% 3.7 mph SW6.0 kmh SW 11.8 mph19.0 kmh 30.60 in1036.2 mb 0.00 in0.0 mm 0.00 in0.0 mm 0.01 in0.3 mm
08:18 AM 40.1°F4.5°C 34.7°F1.5°C 81% 5.6 mph SW9.0 kmh SW 13.7 mph22.0 kmh 30.61 in1036.6 mb 0.00 in0.0 mm 0.00 in0.0 mm 0.01 in0.3 mm
08:12 AM 40.1°F4.5°C 34.7°F1.5°C 81% 5.6 mph SW9.0 kmh SW 15.5 mph24.9 kmh 30.60 in1036.2 mb 0.00 in0.0 mm 0.00 in0.0 mm 0.01 in0.3 mm
08:02 AM 39.9°F4.4°C 34.5°F1.4°C 81% 4.4 mph SW7.1 kmh SW 12.4 mph20.0 kmh 30.60 in1036.2 mb 0.00 in0.0 mm 0.00 in0.0 mm 0.01 in0.3 mm
07:52 AM 39.9°F4.4°C 34.5°F1.4°C 81% 4.4 mph SW7.1 kmh SW 10.6 mph17.1 kmh 30.60 in1036.2 mb 0.00 in0.0 mm 0.00 in0.0 mm 0.01 in0.3 mm
07:42 AM 40.1°F4.5°C 34.7°F1.5°C 81% 5.6 mph SW9.0 kmh SW 12.4 mph20.0 kmh 30.59 in1035.9 mb 0.00 in0.0 mm 0.00 in0.0 mm 0.01 in0.3 mm
07:32 AM 40.1°F4.5°C 34.7°F1.5°C 81% 5.0 mph SW8.0 kmh SW 14.3 mph23.0 kmh 30.59 in1035.9 mb 0.00 in0.0 mm 0.00 in0.0 mm 0.01 in0.3 mm
07:22 AM 40.1°F4.5°C 34.7°F1.5°C 81% 5.6 mph SW9.0 kmh SW 16.8 mph27.0 kmh 30.58 in1035.6 mb 0.00 in0.0 mm 0.00 in0.0 mm 0.01 in0.3 mm
07:12 AM 40.1°F4.5°C 34.7°F1.5°C 81% 5.6 mph SW9.0 kmh SW 21.1 mph34.0 kmh 30.58 in1035.6 mb 0.00 in0.0 mm 0.00 in0.0 mm 0.01 in0.3 mm
07:02 AM 40.1°F4.5°C 34.7°F1.5°C 81% 5.6 mph SW9.0 kmh SW 24.2 mph38.9 kmh 30.59 in1035.9 mb 0.00 in0.0 mm 0.00 in0.0 mm 0.01 in0.3 mm
06:51 AM 40.1°F4.5°C 34.7°F1.5°C 81% 6.2 mph WSW10.0 kmh WSW 16.2 mph26.1 kmh 30.58 in1035.6 mb 0.00 in0.0 mm 0.00 in0.0 mm 0.01 in0.3 mm
06:39 AM 40.1°F4.5°C 35.1°F1.7°C 82% 7.5 mph SW12.1 kmh SW 15.5 mph24.9 kmh 30.58 in1035.6 mb 0.00 in0.0 mm 0.00 in0.0 mm 0.01 in0.3 mm
06:32 AM 40.1°F4.5°C 35.1°F1.7°C 82% 8.1 mph SW13.0 kmh SW 18.6 mph29.9 kmh 30.57 in1035.2 mb 0.00 in0.0 mm 0.00 in0.0 mm 0.01 in0.3 mm
06:19 AM 39.9°F4.4°C 34.9°F1.6°C 82% 8.1 mph SW13.0 kmh SW 19.9 mph32.0 kmh 30.57 in1035.2 mb 0.00 in0.0 mm 0.00 in0.0 mm 0.01 in0.3 mm
06:12 AM 39.9°F4.4°C 34.9°F1.6°C 82% 9.3 mph SW15.0 kmh SW 17.4 mph28.0 kmh 30.56 in1034.9 mb 0.00 in0.0 mm 0.00 in0.0 mm 0.01 in0.3 mm
05:59 AM 39.9°F4.4°C 34.9°F1.6°C 82% 8.1 mph SW13.0 kmh SW 18.6 mph29.9 kmh 30.56 in1034.9 mb 0.00 in0.0 mm 0.00 in0.0 mm 0.01 in0.3 mm
05:51 AM 39.7°F4.3°C 34.9°F1.6°C 83% 9.3 mph WSW15.0 kmh WSW 17.4 mph28.0 kmh 30.57 in1035.2 mb 0.00 in0.0 mm 0.00 in0.0 mm 0.01 in0.3 mm
05:42 AM 39.7°F4.3°C 34.9°F1.6°C 83% 8.1 mph SW13.0 kmh SW 18.6 mph29.9 kmh 30.57 in1035.2 mb 0.00 in0.0 mm 0.00 in0.0 mm 0.01 in0.3 mm
05:28 AM 39.6°F4.2°C 35.1°F1.7°C 84% 8.1 mph SW13.0 kmh SW 16.2 mph26.1 kmh 30.56 in1034.9 mb 0.00 in0.0 mm 0.00 in0.0 mm 0.01 in0.3 mm
05:18 AM 39.6°F4.2°C 35.1°F1.7°C 84% 6.2 mph SW10.0 kmh SW 14.3 mph23.0 kmh 30.56 in1034.9 mb 0.00 in0.0 mm 0.00 in0.0 mm 0.01 in0.3 mm
05:08 AM 39.6°F4.2°C 34.7°F1.5°C 83% 3.1 mph SW5.0 kmh SW 7.5 mph12.1 kmh 30.56 in1034.9 mb 0.00 in0.0 mm 0.00 in0.0 mm 0.01 in0.3 mm
04:58 AM 39.7°F4.3°C 34.9°F1.6°C 83% 6.2 mph SW10.0 kmh SW 14.9 mph24.0 kmh 30.56 in1034.9 mb 0.00 in0.0 mm 0.00 in0.0 mm 0.01 in0.3 mm
04:48 AM 40.1°F4.5°C 35.2°F1.8°C 83% 9.9 mph SW15.9 kmh SW 21.1 mph34.0 kmh 30.55 in1034.5 mb 0.00 in0.0 mm 0.00 in0.0 mm 0.01 in0.3 mm
04:38 AM 40.1°F4.5°C 35.2°F1.8°C 83% 10.6 mph SW17.1 kmh SW 21.1 mph34.0 kmh 30.55 in1034.5 mb 0.00 in0.0 mm 0.00 in0.0 mm 0.01 in0.3 mm
04:28 AM 39.9°F4.4°C 35.1°F1.7°C 83% 9.9 mph SW15.9 kmh SW 18.0 mph29.0 kmh 30.55 in1034.5 mb 0.00 in0.0 mm 0.00 in0.0 mm 0.01 in0.3 mm
04:18 AM 39.9°F4.4°C 35.4°F1.9°C 84% 8.1 mph SW13.0 kmh SW 21.1 mph34.0 kmh 30.55 in1034.5 mb 0.00 in0.0 mm 0.00 in0.0 mm 0.01 in0.3 mm
04:08 AM 39.7°F4.3°C 35.6°F2.0°C 85% 9.3 mph SW15.0 kmh SW 18.0 mph29.0 kmh 30.55 in1034.5 mb 0.00 in0.0 mm 0.00 in0.0 mm 0.01 in0.3 mm
03:58 AM 39.7°F4.3°C 35.6°F2.0°C 85% 6.8 mph SW10.9 kmh SW 14.9 mph24.0 kmh 30.55 in1034.5 mb 0.00 in0.0 mm 0.00 in0.0 mm 0.01 in0.3 mm
03:52 AM 39.6°F4.2°C 35.6°F2.0°C 86% 8.1 mph SW13.0 kmh SW 18.6 mph29.9 kmh 30.55 in1034.5 mb 0.00 in0.0 mm 0.00 in0.0 mm 0.01 in0.3 mm
03:38 AM 39.6°F4.2°C 36.0°F2.2°C 87% 8.1 mph SW13.0 kmh SW 20.5 mph33.0 kmh 30.55 in1034.5 mb 0.00 in0.0 mm 0.00 in0.0 mm 0.01 in0.3 mm
03:33 AM 39.4°F4.1°C 35.8°F2.1°C 87% 7.5 mph SW12.1 kmh SW 16.8 mph27.0 kmh 30.55 in1034.5 mb 0.00 in0.0 mm 0.00 in0.0 mm 0.01 in0.3 mm
03:22 AM 39.2°F4.0°C 35.6°F2.0°C 87% 8.1 mph SW13.0 kmh SW 19.3 mph31.1 kmh 30.55 in1034.5 mb 0.00 in0.0 mm 0.00 in0.0 mm 0.01 in0.3 mm
03:12 AM 39.2°F4.0°C 35.6°F2.0°C 87% 6.8 mph SW10.9 kmh SW 14.9 mph24.0 kmh 30.55 in1034.5 mb 0.00 in0.0 mm 0.00 in0.0 mm 0.01 in0.3 mm
03:01 AM 39.2°F4.0°C 35.6°F2.0°C 87% 6.8 mph SW10.9 kmh SW 15.5 mph24.9 kmh 30.55 in1034.5 mb 0.00 in0.0 mm 0.00 in0.0 mm 0.01 in0.3 mm
02:50 AM 39.2°F4.0°C 35.6°F2.0°C 87% 7.5 mph SW12.1 kmh SW 17.4 mph28.0 kmh 30.55 in1034.5 mb 0.00 in0.0 mm 0.00 in0.0 mm 0.01 in0.3 mm
02:39 AM 39.0°F3.9°C 35.8°F2.1°C 88% 7.5 mph SW12.1 kmh SW 14.9 mph24.0 kmh 30.55 in1034.5 mb 0.00 in0.0 mm 0.00 in0.0 mm 0.01 in0.3 mm
02:33 AM 39.0°F3.9°C 36.0°F2.2°C 89% 9.3 mph SW15.0 kmh SW 18.6 mph29.9 kmh 30.54 in1034.2 mb 0.00 in0.0 mm 0.00 in0.0 mm 0.01 in0.3 mm
02:20 AM 39.0°F3.9°C 36.0°F2.2°C 89% 9.3 mph SW15.0 kmh SW 18.6 mph29.9 kmh 30.54 in1034.2 mb 0.00 in0.0 mm 0.00 in0.0 mm 0.01 in0.3 mm
02:13 AM 39.0°F3.9°C 36.0°F2.2°C 89% 6.8 mph SW10.9 kmh SW 15.5 mph24.9 kmh 30.54 in1034.2 mb 0.00 in0.0 mm 0.00 in0.0 mm 0.01 in0.3 mm
02:03 AM 38.5°F3.6°C 35.8°F2.1°C 90% 5.0 mph SW8.0 kmh SW 10.6 mph17.1 kmh 30.54 in1034.2 mb 0.00 in0.0 mm 0.00 in0.0 mm 0.01 in0.3 mm
01:50 AM 38.5°F3.6°C 36.0°F2.2°C 91% 3.7 mph SW6.0 kmh SW 10.6 mph17.1 kmh 30.54 in1034.2 mb 0.00 in0.0 mm 0.00 in0.0 mm 0.01 in0.3 mm
01:43 AM 38.5°F3.6°C 36.0°F2.2°C 91% 3.1 mph SSW5.0 kmh SSW 6.8 mph10.9 kmh 30.54 in1034.2 mb 0.00 in0.0 mm 0.00 in0.0 mm 0.01 in0.3 mm
01:32 AM 38.5°F3.6°C 36.0°F2.2°C 91% 3.1 mph SW5.0 kmh SW 8.1 mph13.0 kmh 30.54 in1034.2 mb 0.01 in0.3 mm 0.06 in1.5 mm 0.01 in0.3 mm
01:22 AM 38.5°F3.6°C 36.3°F2.4°C 92% 4.4 mph SW7.1 kmh SW 10.6 mph17.1 kmh 30.54 in1034.2 mb 0.00 in0.0 mm 0.00 in0.0 mm 0.01 in0.3 mm
01:11 AM 38.3°F3.5°C 36.1°F2.3°C 92% 3.1 mph SW5.0 kmh SW 6.2 mph10.0 kmh 30.53 in1033.9 mb 0.00 in0.0 mm 0.00 in0.0 mm 0.01 in0.3 mm
01:03 AM 38.5°F3.6°C 36.3°F2.4°C 92% 3.7 mph SW6.0 kmh SW 6.8 mph10.9 kmh 30.53 in1033.9 mb 0.01 in0.3 mm 0.00 in0.0 mm 0.01 in0.3 mm
12:53 AM 38.3°F3.5°C 36.1°F2.3°C 92% 3.1 mph SW5.0 kmh SW 6.8 mph10.9 kmh 30.53 in1033.9 mb 0.01 in0.3 mm 0.00 in0.0 mm 0.01 in0.3 mm
12:43 AM 38.3°F3.5°C 36.1°F2.3°C 92% 1.9 mph SW3.1 kmh SW 3.1 mph5.0 kmh 30.53 in1033.9 mb 0.01 in0.3 mm 0.00 in0.0 mm 0.01 in0.3 mm
12:33 AM 38.5°F3.6°C 36.3°F2.4°C 92% 3.7 mph SW6.0 kmh SW 4.4 mph7.1 kmh 30.53 in1033.9 mb 0.01 in0.3 mm 0.00 in0.0 mm 0.03 in0.8 mm
12:18 AM 38.5°F3.6°C 36.3°F2.4°C 92% 3.7 mph SW6.0 kmh SW 5.6 mph9.0 kmh 30.53 in1033.9 mb 0.01 in0.3 mm 0.00 in0.0 mm 0.03 in0.8 mm
12:10 AM 38.5°F3.6°C 36.7°F2.6°C 93% 2.5 mph SW4.0 kmh SW 3.1 mph5.0 kmh 30.53 in1033.9 mb 0.03 in0.8 mm 0.18 in4.6 mm 0.03 in0.8 mm